createdAt,value
2023-01-21T00:04:17.896Z,90.31
2023-01-21T00:09:21.006Z,90.30
2023-01-21T00:14:24.212Z,90.31
2023-01-21T00:19:29.248Z,90.32
2023-01-21T00:24:32.370Z,90.33
2023-01-21T00:29:35.586Z,90.37
2023-01-21T00:34:38.802Z,90.45
2023-01-21T00:39:43.231Z,90.37
2023-01-21T00:44:46.634Z,90.32
2023-01-21T00:49:50.046Z,90.26
2023-01-21T00:54:53.155Z,90.22
2023-01-21T00:59:56.362Z,90.16
2023-01-21T01:04:59.470Z,90.08
2023-01-21T01:10:02.888Z,90.06
2023-01-21T01:15:06.905Z,90.00
2023-01-21T01:20:11.037Z,90.06
2023-01-21T01:25:14.347Z,90.08
2023-01-21T01:30:18.535Z,90.05
2023-01-21T01:35:22.100Z,90.06
2023-01-21T01:40:25.408Z,90.01
2023-01-21T01:45:29.248Z,89.99
2023-01-21T01:50:37.965Z,89.97
2023-01-21T01:55:42.574Z,89.86
2023-01-21T02:00:46.639Z,89.84
2023-01-21T02:05:51.279Z,89.72
2023-01-21T02:10:56.655Z,89.52
2023-01-21T02:16:31.078Z,89.44
2023-01-21T02:21:50.253Z,89.28
2023-01-21T02:27:18.654Z,89.26
2023-01-21T02:32:40.829Z,89.17
2023-01-21T02:38:07.269Z,89.14
2023-01-21T02:43:21.324Z,89.03
2023-01-21T02:48:43.171Z,88.97
2023-01-21T02:53:46.271Z,88.97
2023-01-21T02:58:58.490Z,88.96
2023-01-21T03:04:26.584Z,89.01
2023-01-21T03:09:33.047Z,89.02
2023-01-21T03:15:06.900Z,89.09
2023-01-21T03:20:29.555Z,89.15
2023-01-21T03:25:35.222Z,89.21
2023-01-21T03:30:43.571Z,89.27
2023-01-21T03:35:51.442Z,89.31
2023-01-21T03:41:23.556Z,89.33
2023-01-21T03:46:45.911Z,89.32
2023-01-21T03:51:54.177Z,89.35
2023-01-21T03:56:57.243Z,89.38
2023-01-21T04:02:00.364Z,89.46
2023-01-21T04:07:03.761Z,89.43
2023-01-21T04:12:07.309Z,89.43
2023-01-21T04:17:10.994Z,89.43
2023-01-21T04:22:14.098Z,89.43
2023-01-21T04:27:17.512Z,89.47
2023-01-21T04:32:20.723Z,89.46
2023-01-21T04:37:24.136Z,89.41
2023-01-21T04:42:27.443Z,89.34
2023-01-21T04:47:30.547Z,89.31
2023-01-21T04:52:34.064Z,89.25
2023-01-21T04:57:37.788Z,89.20
2023-01-21T05:02:41.101Z,89.16
2023-01-21T05:07:44.505Z,89.02
2023-01-21T05:12:48.776Z,88.81
2023-01-21T05:17:52.053Z,88.84
2023-01-21T05:22:55.256Z,88.86
2023-01-21T05:27:58.463Z,88.74
2023-01-21T05:33:01.567Z,88.67
2023-01-21T05:38:05.297Z,88.65
2023-01-21T05:43:08.606Z,88.68
2023-01-21T05:48:11.715Z,88.74
2023-01-21T05:53:16.203Z,88.71
2023-01-21T05:58:20.268Z,88.57
2023-01-21T06:03:23.716Z,88.57
2023-01-21T06:08:27.197Z,88.58
2023-01-21T06:13:30.420Z,88.51
2023-01-21T06:18:34.634Z,88.37
2023-01-21T06:23:37.753Z,88.36
2023-01-21T06:28:40.850Z,88.25
2023-01-21T06:33:44.054Z,88.26
2023-01-21T06:38:47.262Z,88.54
2023-01-21T06:43:50.778Z,88.83
2023-01-21T06:48:54.602Z,89.32
2023-01-21T06:53:57.909Z,89.76
2023-01-21T06:59:01.023Z,90.19
2023-01-21T07:04:04.348Z,90.58
2023-01-21T07:09:08.665Z,90.85
2023-01-21T07:14:12.386Z,91.18
2023-01-21T07:19:15.792Z,91.35
2023-01-21T07:24:19.106Z,91.55
2023-01-21T07:29:23.438Z,91.84
2023-01-21T07:34:26.760Z,92.09
2023-01-21T07:39:30.581Z,92.18
2023-01-21T07:44:35.030Z,92.46
2023-01-21T07:49:38.316Z,92.77
2023-01-21T07:54:41.524Z,93.22
2023-01-21T07:59:45.552Z,93.55
2023-01-21T08:04:49.888Z,93.57
2023-01-21T08:09:54.532Z,93.77
2023-01-21T08:14:58.041Z,93.82
2023-01-21T08:20:01.355Z,93.87
2023-01-21T08:25:06.734Z,94.04
2023-01-21T08:30:11.150Z,94.06
2023-01-21T08:35:15.065Z,94.03
2023-01-21T08:40:18.793Z,93.99
2023-01-21T08:45:21.899Z,93.94
2023-01-21T08:50:25.107Z,93.90
2023-01-21T08:55:28.744Z,93.83
2023-01-21T09:00:32.546Z,93.76
2023-01-21T09:05:35.863Z,93.85
2023-01-21T09:10:58.826Z,93.85
2023-01-21T09:16:02.342Z,93.79
2023-01-21T09:21:07.072Z,93.76
2023-01-21T09:26:17.676Z,93.79
2023-01-21T09:31:22.496Z,93.99
2023-01-21T09:36:28.898Z,94.12
2023-01-21T09:41:49.844Z,94.24
2023-01-21T09:47:06.146Z,94.39
2023-01-21T09:52:35.870Z,94.44
2023-01-21T09:57:57.819Z,94.61
2023-01-21T10:03:12.901Z,94.90
2023-01-21T10:08:41.396Z,95.07
2023-01-21T10:14:15.750Z,95.17
2023-01-21T10:19:25.794Z,95.20
2023-01-21T10:24:38.920Z,95.17
2023-01-21T10:29:43.031Z,95.10
2023-01-21T10:34:52.374Z,95.03
2023-01-21T10:40:17.549Z,94.94
2023-01-21T10:45:28.739Z,94.71
2023-01-21T10:50:44.783Z,94.47
2023-01-21T10:56:01.013Z,94.32
2023-01-21T11:01:12.810Z,94.13
2023-01-21T11:06:20.024Z,93.81
2023-01-21T11:11:29.831Z,93.57
2023-01-21T11:16:46.560Z,93.18
2023-01-21T11:21:59.804Z,92.85
2023-01-21T11:27:03.226Z,92.79
2023-01-21T11:32:19.084Z,92.36
2023-01-21T11:37:26.329Z,92.45
2023-01-21T11:42:29.733Z,92.37
2023-01-21T11:48:15.299Z,91.97
2023-01-21T11:53:20.234Z,91.94
2023-01-21T11:58:29.209Z,91.62
2023-01-21T12:03:38.482Z,91.72
2023-01-21T12:08:41.806Z,91.46
2023-01-21T12:13:47.868Z,91.25
2023-01-21T12:19:04.178Z,91.24
2023-01-21T12:24:26.742Z,91.36
2023-01-21T12:29:54.536Z,91.64
2023-01-21T12:35:04.456Z,91.70
2023-01-21T12:40:24.490Z,91.64
2023-01-21T12:45:32.610Z,91.64
2023-01-21T12:50:42.077Z,91.53
2023-01-21T12:55:52.151Z,91.60
2023-01-21T13:01:00.701Z,91.59
2023-01-21T13:06:09.690Z,91.58
2023-01-21T13:11:28.281Z,91.49
2023-01-21T13:16:35.646Z,91.60
2023-01-21T13:22:01.458Z,91.65
2023-01-21T13:27:21.934Z,91.62
2023-01-21T13:32:47.162Z,91.61
2023-01-21T13:38:20.678Z,91.64
2023-01-21T13:43:33.207Z,91.76
2023-01-21T13:48:49.723Z,91.78
2023-01-21T13:54:11.888Z,91.72
2023-01-21T13:59:26.003Z,91.76
2023-01-21T14:04:46.043Z,91.68
2023-01-21T14:10:01.467Z,91.45
2023-01-21T14:15:23.076Z,91.57
2023-01-21T14:20:38.673Z,91.83
2023-01-21T14:25:52.016Z,92.20
2023-01-21T14:31:14.987Z,92.49
2023-01-21T14:36:24.038Z,92.72
2023-01-21T14:42:05.349Z,92.90
2023-01-21T14:47:24.732Z,93.06
2023-01-21T14:52:44.654Z,93.20
2023-01-21T14:57:54.211Z,93.25
2023-01-21T15:03:10.083Z,93.30
2023-01-21T15:08:22.405Z,93.42
2023-01-21T15:13:35.336Z,93.49
2023-01-21T15:19:06.192Z,93.48
2023-01-21T15:24:18.357Z,93.49
2023-01-21T15:29:36.959Z,93.57
2023-01-21T15:34:42.515Z,93.52
2023-01-21T15:39:45.862Z,93.45
2023-01-21T15:44:51.830Z,93.43
2023-01-21T15:50:27.924Z,93.40
2023-01-21T15:55:35.921Z,93.30
2023-01-21T16:01:12.076Z,93.22
2023-01-21T16:06:34.573Z,93.11
2023-01-21T16:11:57.791Z,92.85
2023-01-21T16:17:10.369Z,92.82
2023-01-21T16:22:20.902Z,92.84
2023-01-21T16:27:26.823Z,92.82
2023-01-21T16:32:32.715Z,92.73
2023-01-21T16:37:37.125Z,92.80
2023-01-21T16:42:44.836Z,92.90
2023-01-21T16:47:57.339Z,93.01
2023-01-21T16:53:08.177Z,93.17
2023-01-21T16:58:21.906Z,93.38
2023-01-21T17:03:25.277Z,93.45
2023-01-21T17:08:29.756Z,93.55
2023-01-21T17:13:34.036Z,93.70
2023-01-21T17:18:41.087Z,93.71
2023-01-21T17:23:47.904Z,93.78
2023-01-21T17:29:10.444Z,93.83
2023-01-21T17:34:16.930Z,93.94
2023-01-21T17:39:44.924Z,93.98
2023-01-21T17:44:51.723Z,94.05
2023-01-21T17:50:20.621Z,94.03
2023-01-21T17:55:31.217Z,94.07
2023-01-21T18:00:44.703Z,94.11
2023-01-21T18:05:49.698Z,94.11
2023-01-21T18:10:53.111Z,94.14
2023-01-21T18:15:56.824Z,94.14
2023-01-21T18:21:02.542Z,94.17
2023-01-21T18:26:15.174Z,94.20
2023-01-21T18:31:19.917Z,94.24
2023-01-21T18:36:23.804Z,94.22
2023-01-21T18:41:27.111Z,94.17
2023-01-21T18:46:30.357Z,94.14
2023-01-21T18:51:33.522Z,94.13
2023-01-21T18:56:38.184Z,94.17
2023-01-21T19:01:43.150Z,94.21
2023-01-21T19:06:56.047Z,94.21
2023-01-21T19:11:59.875Z,94.26
2023-01-21T19:17:03.293Z,94.33
2023-01-21T19:22:11.925Z,94.35
2023-01-21T19:27:32.541Z,94.33
2023-01-21T19:32:37.901Z,94.38
2023-01-21T19:37:43.649Z,94.43
2023-01-21T19:42:47.385Z,94.47
2023-01-21T19:47:52.185Z,94.48
2023-01-21T19:52:56.061Z,94.52
2023-01-21T19:58:04.975Z,94.62
2023-01-21T20:03:12.417Z,94.65
2023-01-21T20:08:21.458Z,94.62
2023-01-21T20:13:25.179Z,94.64
2023-01-21T20:18:31.186Z,94.64
2023-01-21T20:23:37.075Z,94.70
2023-01-21T20:28:50.581Z,94.74
2023-01-21T20:33:54.572Z,94.69
2023-01-21T20:38:58.488Z,94.68
2023-01-21T20:44:04.285Z,94.65
2023-01-21T20:49:11.077Z,94.62
2023-01-21T20:54:14.388Z,94.59
2023-01-21T20:59:18.624Z,94.55
2023-01-21T21:04:22.155Z,94.54
2023-01-21T21:09:25.349Z,94.54
2023-01-21T21:14:28.557Z,94.50
2023-01-21T21:19:31.758Z,94.49
2023-01-21T21:24:34.980Z,94.50
2023-01-21T21:29:38.406Z,94.51
2023-01-21T21:34:43.224Z,94.47
2023-01-21T21:39:46.750Z,94.46
2023-01-21T21:44:49.951Z,94.48
2023-01-21T21:49:52.998Z,94.46
2023-01-21T21:54:56.429Z,94.43
2023-01-21T21:59:59.879Z,94.39
2023-01-21T22:05:03.107Z,94.35
2023-01-21T22:10:09.156Z,94.32
2023-01-21T22:15:13.096Z,94.30
2023-01-21T22:20:16.512Z,94.29
2023-01-21T22:25:20.086Z,94.28
2023-01-21T22:30:25.497Z,94.27
2023-01-21T22:35:29.296Z,94.23
2023-01-21T22:40:37.008Z,94.20
2023-01-21T22:45:46.734Z,94.18
2023-01-21T22:50:55.237Z,94.19
2023-01-21T22:56:05.439Z,94.16
2023-01-21T23:01:09.765Z,94.10
2023-01-21T23:06:13.227Z,94.12
2023-01-21T23:11:18.595Z,94.12
2023-01-21T23:16:22.517Z,94.14
2023-01-21T23:21:25.632Z,94.15
2023-01-21T23:26:29.132Z,94.16
2023-01-21T23:31:32.729Z,94.15
2023-01-21T23:36:36.782Z,94.23
2023-01-21T23:41:40.195Z,94.26
2023-01-21T23:46:43.904Z,94.29
2023-01-21T23:51:47.324Z,94.27
2023-01-21T23:56:50.526Z,94.11
